• Join FlightAware (Why Join?)
  • Login
  • US Flag 
06:55AM EDT


 

Airport Tracker/Info


-or-


 

Live Flight TrackerFlight Track Log ✈ SKW7430 ✈ 08-May-2013 ✈ KPIH - KSLC

Flight Track Log - Related Links

Times and Time Zones

All times are in EDT time to prevent confusion due to time zone crossing. See the SKW7430 flight status page for this flight to view local times or setup timezone preferences in your user account.

Time Position Orientation Groundspeed Altitude Reporting Facility
EDT Latitude Longitude Course Direction KTS MPH feet Rate Location/Type
08:23PM 42.8833 -112.5475 175° South 209 241 6,600  Level Salt Lake Center
08:24PM 42.8181 -112.5525 183° South 208 239 7,500 960 Climbing Salt Lake Center
08:25PM 42.7617 -112.5514 179° South 211 243 8,700 1,140 Climbing Salt Lake Center
08:26PM 42.8523 -112.9819 163° South  Level FlightAware Approximate
08:26PM 42.7078 -112.5422 173° South 206 237 9,900  Level Salt Lake Center
08:27PM 42.7877 -112.9551 164° South  Level FlightAware Approximate
08:27PM 42.6792 -112.6244 245° Southwest 235 270 10,800  Level Salt Lake Center
08:28PM 42.7229 -112.9291 164° South  Level FlightAware Approximate
08:28PM 42.6575 -112.7019 249° West 225 259 10,900  Level Salt Lake Center
08:29PM 42.6339 -112.7856 249° West 234 269 11,900 1,260 Climbing Salt Lake Center
08:30PM 42.6056 -112.8825 248° West 232 267 13,600 1,620 Climbing Salt Lake Center
08:31PM 42.5833 -112.9633 250° West 230 265 15,300 1,380 Climbing Salt Lake Center
08:32PM 42.5617 -113.0439 250° West 229 264 16,500 1,080 Climbing Salt Lake Center
08:33PM 42.5211 -113.1092 230° Southwest 240 276 17,600 1,020 Climbing Salt Lake Center
08:35PM 42.4661 -113.0794 158° South 217 250 18,600 960 Climbing Salt Lake Center
08:36PM 42.4075 -113.0456 157° South 224 258 19,700 960 Climbing Salt Lake Center
08:37PM 42.3525 -113.0100 154° Southeast 222 255 20,600 960 Climbing Salt Lake Center
08:38PM 42.2811 -112.9675 156° South 235 270 21,700 1,020 Climbing Salt Lake Center
08:39PM 42.2222 -112.9289 154° Southeast 237 273 22,700 600 Climbing Salt Lake Center
08:40PM 42.1614 -112.8897 154° Southeast 242 278 23,000 120 Climbing Salt Lake Center
08:41PM 42.1006 -112.8489 154° Southeast 246 283 23,000  Level Salt Lake Center
08:42PM 42.0389 -112.8103 155° Southeast 246 283 23,000  Level Salt Lake Center
08:43PM 41.9772 -112.7697 154° Southeast 247 284 23,000 -240 Level Salt Lake Center
08:44PM 41.9156 -112.7303 155° Southeast 247 284 22,600 -960 Descending Salt Lake Center
08:45PM 41.8328 -112.6806 156° South 268 308 21,100 -1,380 Descending Salt Lake Center
08:46PM 41.7644 -112.6386 155° Southeast 272 313 19,800 -1,440 Descending Salt Lake Center
08:47PM 41.6989 -112.5969 155° Southeast 267 307 18,200 -1,500 Descending Salt Lake Center
08:47PM 41.6692 -112.5944 176° South 282 325 17,700 -1,500 Descending Salt Lake Center
08:48PM 41.6222 -112.5972 183° South 273 314 16,700 -1,980 Descending Salt Lake Center
08:48PM 41.6014 -112.5886 163° South 265 305 15,900 -1,440 Descending Salt Lake Center
08:49PM 41.5533 -112.5272 136° Southeast 255 293 14,900 -900 Descending Salt Lake Center
08:50PM 41.5139 -112.4939 148° Southeast 263 303 14,400 -720 Descending Salt Lake Center
08:51PM 41.4472 -112.4378 148° Southeast 282 325 13,700 -720 Descending Salt Lake Center
08:51PM 41.4144 -112.4081 146° Southeast 284 327 13,500 -720 Descending Salt Lake Center
08:52PM 41.3675 -112.3739 151° Southeast 279 321 13,000 -840 Descending Salt Lake Center
08:52PM 41.3486 -112.3561 145° Southeast 278 320 12,700 -840 Descending Salt Lake Center
08:53PM 41.2994 -112.3211 152° Southeast 285 328 12,200 -720 Descending Salt Lake Center
08:53PM 41.2803 -112.3019 143° Southeast 286 329 12,000 -240 Descending Salt Lake Center
08:54PM 41.2311 -112.2675 152° Southeast 287 330 12,000 -120 Level Salt Lake Center
08:55PM 41.1514 -112.2031 149° Southeast 274 315 11,800 -420 Descending Salt Lake Center
08:56PM 41.1003 -112.1661 151° Southeast 274 315 11,200 -420 Descending Salt Lake Center
08:57PM 41.0047 -112.1333 165° South 284 327 11,000 -120 Descending Salt Lake Center
08:58PM 40.9353 -112.1175 170° South 276 318 11,000  Level Salt Lake Center
08:59PM 40.8619 -112.1017 171° South 270 311 11,000  Level Salt Lake Center
09:00PM 40.7956 -112.0950 176° South 243 280 11,000 -180 Level Salt Lake Center
09:01PM 40.7333 -112.0881 175° South 227 261 10,700 -540 Descending Salt Lake Center
09:02PM 40.6689 -112.0808 175° South 232 267 9,900 -1,020 Descending Salt Lake Center
09:03PM 40.6392 -112.0814 181° South 237 273 9,400 -900 Descending Salt Lake Center
09:03PM 40.6028 -112.0722 169° South 238 274 9,000 -1,020 Descending Salt Lake Center
09:04PM 40.5892 -112.0447 123° Southeast 221 254 8,400 -1,200 Descending Salt Lake Center
09:04PM 40.6044 -112.0072 62° Northeast 209 241 7,800 -1,020 Descending Salt Lake Center
09:05PM 40.6247 -111.9958 23° Northeast 196 226 7,400 -1,320 Descending Salt Lake Center
09:05PM 40.6628 -111.9839 13° North 183 211 6,500 -1,200 Descending Salt Lake Center